Time,TemperatureF,DewpointF,PressureIn,WindDirection,WindDirectionDegrees,WindSpeedMPH,WindSpeedGustMPH,Humidity,HourlyPrecipIn,Conditions,Clouds,dailyrainin,SoftwareType,DateUTC
2013-05-28 00:00:00,63.3,39.0,29.80,NNW,331,0.0,0.0,41,0.00,,,0.00,weatherlink.com 1.10,2013-05-28 08:00:00,
2013-05-28 00:15:00,62.4,39.0,29.80,NNW,331,0.0,0.0,42,0.00,,,0.00,weatherlink.com 1.10,2013-05-28 08:15:00,
2013-05-28 00:30:00,61.3,39.0,29.81,NNW,332,0.0,0.0,44,0.00,,,0.00,weatherlink.com 1.10,2013-05-28 08:30:00,
2013-05-28 00:45:00,60.4,38.0,29.81,WNW,302,0.0,1.0,44,0.00,,,0.00,weatherlink.com 1.10,2013-05-28 08:45:00,
2013-05-28 01:00:00,60.3,37.0,29.81,WNW,302,0.0,1.0,42,0.00,,,0.00,weatherlink.com 1.10,2013-05-28 09:00:00,
2013-05-28 01:15:00,60.1,37.0,29.81,WNW,302,0.0,1.0,42,0.00,,,0.00,weatherlink.com 1.10,2013-05-28 09:15:00,
2013-05-28 01:31:00,59.5,37.0,29.81,NW,312,0.0,1.0,43,0.00,,,0.00,weatherlink.com 1.10,2013-05-28 09:31:00,
2013-05-28 01:46:00,59.2,37.0,29.81,NW,310,0.0,1.0,44,0.00,,,0.00,weatherlink.com 1.10,2013-05-28 09:46:00,
2013-05-28 02:01:00,58.8,37.0,29.82,NW,311,0.0,1.0,44,0.00,,,0.00,weatherlink.com 1.10,2013-05-28 10:01:00,
2013-05-28 02:16:00,58.6,36.0,29.82,NNW,329,0.0,1.0,43,0.00,,,0.00,weatherlink.com 1.10,2013-05-28 10:16:00,
2013-05-28 02:31:00,58.8,36.0,29.82,NNW,329,0.0,1.0,42,0.00,,,0.00,weatherlink.com 1.10,2013-05-28 10:31:00,
2013-05-28 02:46:00,58.2,36.0,29.82,West,276,0.0,1.0,43,0.00,,,0.00,weatherlink.com 1.10,2013-05-28 10:46:00,
2013-05-28 03:01:00,56.6,37.0,29.82,WSW,250,0.0,0.0,48,0.00,,,0.00,weatherlink.com 1.10,2013-05-28 11:01:00,
2013-05-28 03:16:00,55.6,37.0,29.82,NW,321,0.0,1.0,49,0.00,,,0.00,weatherlink.com 1.10,2013-05-28 11:16:00,
2013-05-28 03:31:00,55.1,36.0,29.82,NW,320,0.0,0.0,49,0.00,,,0.00,weatherlink.com 1.10,2013-05-28 11:31:00,
2013-05-28 03:46:00,55.5,35.0,29.82,NW,320,0.0,1.0,47,0.00,,,0.00,weatherlink.com 1.10,2013-05-28 11:46:00,
2013-05-28 04:01:00,55.4,36.0,29.82,NW,320,0.0,0.0,48,0.00,,,0.00,weatherlink.com 1.10,2013-05-28 12:01:00,
2013-05-28 04:16:00,55.0,35.0,29.82,West,278,0.0,0.0,48,0.00,,,0.00,weatherlink.com 1.10,2013-05-28 12:16:00,
2013-05-28 04:31:00,54.2,37.0,29.83,West,278,0.0,0.0,52,0.00,,,0.00,weatherlink.com 1.10,2013-05-28 12:31:00,
2013-05-28 04:46:00,53.0,37.0,29.83,West,278,0.0,0.0,54,0.00,,,0.00,weatherlink.com 1.10,2013-05-28 12:46:00,
2013-05-28 05:01:00,52.6,36.0,29.83,West,278,0.0,0.0,54,0.00,,,0.00,weatherlink.com 1.10,2013-05-28 13:01:00,
2013-05-28 05:16:00,52.6,37.0,29.83,West,278,0.0,0.0,56,0.00,,,0.00,weatherlink.com 1.10,2013-05-28 13:16:00,
2013-05-28 05:31:00,52.8,36.0,29.83,West,278,0.0,0.0,54,0.00,,,0.00,weatherlink.com 1.10,2013-05-28 13:31:00,
2013-05-28 05:46:00,54.1,37.0,29.84,West,278,0.0,0.0,52,0.00,,,0.00,weatherlink.com 1.10,2013-05-28 13:46:00,
2013-05-28 06:01:00,54.4,37.0,29.84,WNW,301,0.0,1.0,52,0.00,,,0.00,weatherlink.com 1.10,2013-05-28 14:01:00,
2013-05-28 06:16:00,54.0,37.0,29.84,WNW,301,0.0,0.0,53,0.00,,,0.00,weatherlink.com 1.10,2013-05-28 14:16:00,
2013-05-28 06:31:00,53.6,37.0,29.84,WNW,301,0.0,0.0,53,0.00,,,0.00,weatherlink.com 1.10,2013-05-28 14:31:00,
2013-05-28 06:46:00,53.0,37.0,29.84,WNW,301,0.0,0.0,55,0.00,,,0.00,weatherlink.com 1.10,2013-05-28 14:46:00,
2013-05-28 07:01:00,52.8,37.0,29.84,WNW,301,0.0,0.0,56,0.00,,,0.00,weatherlink.com 1.10,2013-05-28 15:01:00,
2013-05-28 07:16:00,52.8,38.0,29.84,WNW,301,0.0,0.0,57,0.00,,,0.00,weatherlink.com 1.10,2013-05-28 15:16:00,
2013-05-28 07:31:00,53.2,38.0,29.84,WNW,301,0.0,0.0,57,0.00,,,0.00,weatherlink.com 1.10,2013-05-28 15:31:00,
2013-05-28 07:46:00,53.7,39.0,29.84,WNW,301,0.0,0.0,57,0.00,,,0.00,weatherlink.com 1.10,2013-05-28 15:46:00,
2013-05-28 08:01:00,54.5,39.0,29.83,WNW,301,0.0,0.0,57,0.00,,,0.00,weatherlink.com 1.10,2013-05-28 16:01:00,
2013-05-28 08:16:00,55.7,39.0,29.83,WNW,301,0.0,0.0,54,0.00,,,0.00,weatherlink.com 1.10,2013-05-28 16:16:00,
2013-05-28 08:31:00,58.0,39.0,29.83,WNW,301,0.0,0.0,49,0.00,,,0.00,weatherlink.com 1.10,2013-05-28 16:31:00,
2013-05-28 08:46:00,62.0,38.0,29.83,WNW,301,0.0,0.0,42,0.00,,,0.00,weatherlink.com 1.10,2013-05-28 16:46:00,
2013-05-28 09:01:00,64.1,42.0,29.83,West,274,0.0,2.0,44,0.00,,,0.00,weatherlink.com 1.10,2013-05-28 17:01:00,
2013-05-28 09:16:00,64.0,40.0,29.83,NW,304,1.0,3.0,41,0.00,,,0.00,weatherlink.com 1.10,2013-05-28 17:16:00,
2013-05-28 09:31:00,64.7,38.0,29.83,ESE,115,0.0,1.0,38,0.00,,,0.00,weatherlink.com 1.10,2013-05-28 17:31:00,
2013-05-28 09:46:00,66.2,38.0,29.82,NW,326,1.0,4.0,36,0.00,,,0.00,weatherlink.com 1.10,2013-05-28 17:46:00,
2013-05-28 10:01:00,67.9,39.0,29.82,SE,138,1.0,2.0,35,0.00,,,0.00,weatherlink.com 1.10,2013-05-28 18:01:00,
2013-05-28 10:17:00,69.0,40.0,29.82,NW,319,0.0,3.0,35,0.00,,,0.00,weatherlink.com 1.10,2013-05-28 18:17:00,
2013-05-28 10:32:00,69.1,39.0,29.82,West,262,0.0,3.0,34,0.00,,,0.00,weatherlink.com 1.10,2013-05-28 18:32:00,
2013-05-28 10:47:00,70.7,40.0,29.82,SSW,193,1.0,1.0,33,0.00,,,0.00,weatherlink.com 1.10,2013-05-28 18:47:00,
2013-05-28 11:02:00,71.6,40.0,29.81,SE,127,1.0,2.0,32,0.00,,,0.00,weatherlink.com 1.10,2013-05-28 19:02:00,
2013-05-28 11:17:00,71.6,40.0,29.81,South,173,0.0,1.0,32,0.00,,,0.00,weatherlink.com 1.10,2013-05-28 19:17:00,
2013-05-28 11:32:00,72.5,39.0,29.81,SSW,198,0.0,3.0,30,0.00,,,0.00,weatherlink.com 1.10,2013-05-28 19:32:00,
2013-05-28 11:47:00,72.2,38.0,29.80,ESE,117,0.0,1.0,29,0.00,,,0.00,weatherlink.com 1.10,2013-05-28 19:47:00,
2013-05-28 12:02:00,71.4,38.0,29.80,WNW,297,0.0,1.0,30,0.00,,,0.00,weatherlink.com 1.10,2013-05-28 20:02:00,
2013-05-28 12:17:00,73.6,39.0,29.80,NE,50,2.0,3.0,29,0.00,,,0.00,weatherlink.com 1.10,2013-05-28 20:17:00,
2013-05-28 12:32:00,72.9,40.0,29.79,SSW,198,0.0,1.0,30,0.00,,,0.00,weatherlink.com 1.10,2013-05-28 20:32:00,
2013-05-28 12:47:00,73.8,40.0,29.79,SE,145,0.0,2.0,29,0.00,,,0.00,weatherlink.com 1.10,2013-05-28 20:47:00,
2013-05-28 13:02:00,76.2,39.0,29.78,NNE,15,0.0,3.0,26,0.00,,,0.00,weatherlink.com 1.10,2013-05-28 21:02:00,
2013-05-28 13:17:00,76.8,37.0,29.78,North,358,0.0,4.0,24,0.00,,,0.00,weatherlink.com 1.10,2013-05-28 21:17:00,
2013-05-28 13:32:00,79.2,37.0,29.77,ESE,112,1.0,2.0,22,0.00,,,0.00,weatherlink.com 1.10,2013-05-28 21:32:00,
2013-05-28 13:47:00,79.8,36.0,29.77,East,91,3.0,4.0,21,0.00,,,0.00,weatherlink.com 1.10,2013-05-28 21:47:00,
2013-05-28 14:02:00,78.4,35.0,29.76,NE,38,1.0,4.0,21,0.00,,,0.00,weatherlink.com 1.10,2013-05-28 22:02:00,
2013-05-28 14:17:00,78.7,37.0,29.76,NNE,23,3.0,4.0,22,0.00,,,0.00,weatherlink.com 1.10,2013-05-28 22:17:00,
2013-05-28 14:32:00,80.7,36.0,29.75,SSE,158,3.0,3.0,20,0.00,,,0.00,weatherlink.com 1.10,2013-05-28 22:32:00,
2013-05-28 14:47:00,81.0,36.0,29.75,SW,233,1.0,3.0,20,0.00,,,0.00,weatherlink.com 1.10,2013-05-28 22:47:00,
2013-05-28 15:02:00,81.1,36.0,29.75,SE,134,2.0,6.0,20,0.00,,,0.00,weatherlink.com 1.10,2013-05-28 23:02:00,
2013-05-28 15:17:00,81.7,36.0,29.74,NW,317,2.0,3.0,19,0.00,,,0.00,weatherlink.com 1.10,2013-05-28 23:17:00,
2013-05-28 15:32:00,81.5,35.0,29.74,NNE,15,2.0,4.0,19,0.00,,,0.00,weatherlink.com 1.10,2013-05-28 23:32:00,
2013-05-28 15:47:00,82.2,37.0,29.74,SE,125,5.0,5.0,20,0.00,,,0.00,weatherlink.com 1.10,2013-05-28 23:47:00,
2013-05-28 16:02:00,80.8,33.0,29.74,WNW,298,1.0,6.0,18,0.00,,,0.00,weatherlink.com 1.10,2013-05-29 00:02:00,
2013-05-28 16:17:00,77.7,37.0,29.74,SW,231,0.0,5.0,23,0.00,,,0.00,weatherlink.com 1.10,2013-05-29 00:17:00,
2013-05-28 16:32:00,77.6,37.0,29.74,NW,315,2.0,4.0,23,0.00,,,0.00,weatherlink.com 1.10,2013-05-29 00:32:00,
2013-05-28 16:47:00,76.3,38.0,29.74,NW,319,0.0,3.0,25,0.00,,,0.00,weatherlink.com 1.10,2013-05-29 00:47:00,
2013-05-28 17:02:00,76.4,37.0,29.74,NE,56,2.0,4.0,24,0.00,,,0.00,weatherlink.com 1.10,2013-05-29 01:02:00,
2013-05-28 17:17:00,76.6,36.0,29.73,East,89,0.0,3.0,23,0.00,,,0.00,weatherlink.com 1.10,2013-05-29 01:17:00,
2013-05-28 17:32:00,76.9,35.0,29.73,East,82,0.0,2.0,22,0.00,,,0.00,weatherlink.com 1.10,2013-05-29 01:32:00,
2013-05-28 17:47:00,77.3,34.0,29.73,West,278,0.0,1.0,21,0.00,,,0.00,weatherlink.com 1.10,2013-05-29 01:47:00,
2013-05-28 18:02:00,77.6,37.0,29.73,SSW,208,1.0,2.0,23,0.00,,,0.00,weatherlink.com 1.10,2013-05-29 02:02:00,
2013-05-28 18:17:00,77.5,39.0,29.72,SE,131,0.0,1.0,25,0.00,,,0.00,weatherlink.com 1.10,2013-05-29 02:17:00,
2013-05-28 18:32:00,77.5,38.0,29.72,ESE,118,0.0,1.0,24,0.00,,,0.00,weatherlink.com 1.10,2013-05-29 02:32:00,
2013-05-28 18:48:00,77.6,38.0,29.72,SSW,203,0.0,1.0,24,0.00,,,0.00,weatherlink.com 1.10,2013-05-29 02:48:00,
2013-05-28 19:03:00,78.0,36.0,29.71,SE,129,1.0,1.0,22,0.00,,,0.00,weatherlink.com 1.10,2013-05-29 03:03:00,
2013-05-28 19:18:00,77.9,36.0,29.71,ESE,115,0.0,1.0,22,0.00,,,0.00,weatherlink.com 1.10,2013-05-29 03:18:00,
2013-05-28 19:33:00,77.9,36.0,29.71,ESE,108,0.0,1.0,22,0.00,,,0.00,weatherlink.com 1.10,2013-05-29 03:33:00,
2013-05-28 19:48:00,77.3,38.0,29.71,ESE,107,0.0,1.0,24,0.00,,,0.00,weatherlink.com 1.10,2013-05-29 03:48:00,
2013-05-28 20:03:00,75.8,39.0,29.71,ESE,106,0.0,0.0,27,0.00,,,0.00,weatherlink.com 1.10,2013-05-29 04:03:00,
2013-05-28 20:18:00,74.4,39.0,29.71,ESE,106,0.0,0.0,28,0.00,,,0.00,weatherlink.com 1.10,2013-05-29 04:18:00,
2013-05-28 20:33:00,74.1,40.0,29.71,ESE,106,0.0,1.0,29,0.00,,,0.00,weatherlink.com 1.10,2013-05-29 04:33:00,
2013-05-28 20:48:00,73.7,40.0,29.71,ESE,106,0.0,0.0,30,0.00,,,0.00,weatherlink.com 1.10,2013-05-29 04:48:00,
2013-05-28 21:03:00,73.0,41.0,29.71,ESE,106,0.0,0.0,31,0.00,,,0.00,weatherlink.com 1.10,2013-05-29 05:03:00,
2013-05-28 21:18:00,72.4,40.0,29.71,ESE,106,0.0,0.0,31,0.00,,,0.00,weatherlink.com 1.10,2013-05-29 05:18:00,
2013-05-28 21:33:00,71.4,41.0,29.71,ESE,106,0.0,0.0,33,0.00,,,0.00,weatherlink.com 1.10,2013-05-29 05:33:00,
2013-05-28 21:48:00,70.6,41.0,29.72,ESE,106,0.0,0.0,34,0.00,,,0.00,weatherlink.com 1.10,2013-05-29 05:48:00,
2013-05-28 22:03:00,70.6,40.0,29.72,ESE,106,0.0,1.0,33,0.00,,,0.00,weatherlink.com 1.10,2013-05-29 06:03:00,
2013-05-28 22:18:00,70.9,39.0,29.72,ESE,106,0.0,1.0,31,0.00,,,0.00,weatherlink.com 1.10,2013-05-29 06:18:00,
2013-05-28 22:33:00,71.1,40.0,29.72,ESE,106,0.0,0.0,32,0.00,,,0.00,weatherlink.com 1.10,2013-05-29 06:33:00,
2013-05-28 22:48:00,70.1,40.0,29.72,ESE,106,0.0,0.0,34,0.00,,,0.00,weatherlink.com 1.10,2013-05-29 06:48:00,
2013-05-28 23:03:00,68.4,40.0,29.72,ESE,106,0.0,0.0,35,0.00,,,0.00,weatherlink.com 1.10,2013-05-29 07:03:00,
2013-05-28 23:18:00,66.8,40.0,29.72,ESE,106,0.0,0.0,38,0.00,,,0.00,weatherlink.com 1.10,2013-05-29 07:18:00,
2013-05-28 23:33:00,65.4,41.0,29.72,ESE,106,0.0,1.0,41,0.00,,,0.00,weatherlink.com 1.10,2013-05-29 07:33:00,
2013-05-28 23:48:00,64.9,40.0,29.73,ESE,104,0.0,1.0,40,0.00,,,0.00,weatherlink.com 1.10,2013-05-29 07:48:00,